East Thetford, Vermont
Current Conditions -  °F | °C
As of 2:53 AM on Monday 26 Jan 2015 (Local Time) from KLEB Reporting Station
Clear Clear  
Wind Chill:   Ceiling: Unl
Heat Index:   Visibility: 10mi
Dew Point: -5°   Wind: 0mph
Humidity: 79%   Direction: NA
Pressure: 30.09"   Gusts: NA
Location:  43.81°N, 72.19°W
Report Text: KLEB 260753Z AUTO 00000KT 10SM CLR M18/M21 A3009 RMK AO2 SLP210 T11781206
Loading
Personal Weather Stations






























Interactive Weather Map New forecast layout! Learn more

10-Day Weather Forecast

Advertisements
Track Severe Weather on mobile